sensor_id;sensor_type;location;lat;lon;timestamp;P1;durP1;ratioP1;P2;durP2;ratioP2
19651;SDS011;9974;52.146;14.668;2023-02-17T00:02:08;28.08;;;18.60;;
19651;SDS011;9974;52.146;14.668;2023-02-17T00:04:34;29.40;;;18.85;;
19651;SDS011;9974;52.146;14.668;2023-02-17T00:07:01;26.90;;;18.85;;
19651;SDS011;9974;52.146;14.668;2023-02-17T00:09:27;31.05;;;18.80;;
19651;SDS011;9974;52.146;14.668;2023-02-17T00:11:53;26.42;;;17.85;;
19651;SDS011;9974;52.146;14.668;2023-02-17T00:14:19;30.02;;;19.15;;
19651;SDS011;9974;52.146;14.668;2023-02-17T00:16:45;31.70;;;19.65;;
19651;SDS011;9974;52.146;14.668;2023-02-17T00:19:11;31.88;;;19.17;;
19651;SDS011;9974;52.146;14.668;2023-02-17T00:21:54;26.63;;;18.00;;
19651;SDS011;9974;52.146;14.668;2023-02-17T00:24:21;27.45;;;17.58;;
19651;SDS011;9974;52.146;14.668;2023-02-17T00:26:48;24.92;;;16.60;;
19651;SDS011;9974;52.146;14.668;2023-02-17T00:29:14;29.67;;;18.83;;
19651;SDS011;9974;52.146;14.668;2023-02-17T00:31:41;30.67;;;19.00;;
19651;SDS011;9974;52.146;14.668;2023-02-17T00:34:07;29.30;;;18.85;;
19651;SDS011;9974;52.146;14.668;2023-02-17T00:36:33;27.73;;;16.35;;
19651;SDS011;9974;52.146;14.668;2023-02-17T00:38:59;30.08;;;19.35;;
19651;SDS011;9974;52.146;14.668;2023-02-17T00:41:26;23.98;;;17.25;;
19651;SDS011;9974;52.146;14.668;2023-02-17T00:43:52;27.25;;;17.92;;
19651;SDS011;9974;52.146;14.668;2023-02-17T00:46:19;27.55;;;17.50;;
19651;SDS011;9974;52.146;14.668;2023-02-17T00:48:45;23.23;;;16.90;;
19651;SDS011;9974;52.146;14.668;2023-02-17T00:51:12;21.83;;;16.05;;
19651;SDS011;9974;52.146;14.668;2023-02-17T00:53:39;25.80;;;16.73;;
19651;SDS011;9974;52.146;14.668;2023-02-17T00:56:05;27.38;;;16.65;;
19651;SDS011;9974;52.146;14.668;2023-02-17T00:58:32;30.58;;;17.20;;
19651;SDS011;9974;52.146;14.668;2023-02-17T01:00:59;24.05;;;17.17;;
19651;SDS011;9974;52.146;14.668;2023-02-17T01:03:25;25.52;;;16.73;;
19651;SDS011;9974;52.146;14.668;2023-02-17T01:05:52;33.95;;;18.45;;
19651;SDS011;9974;52.146;14.668;2023-02-17T01:08:19;23.88;;;16.65;;
19651;SDS011;9974;52.146;14.668;2023-02-17T01:10:45;28.38;;;18.20;;
19651;SDS011;9974;52.146;14.668;2023-02-17T01:13:13;26.52;;;17.80;;
19651;SDS011;9974;52.146;14.668;2023-02-17T01:15:40;23.55;;;16.60;;
19651;SDS011;9974;52.146;14.668;2023-02-17T01:18:08;24.40;;;14.82;;
19651;SDS011;9974;52.146;14.668;2023-02-17T01:20:34;26.55;;;17.73;;
19651;SDS011;9974;52.146;14.668;2023-02-17T01:23:01;24.52;;;16.20;;
19651;SDS011;9974;52.146;14.668;2023-02-17T01:25:27;28.95;;;17.88;;
19651;SDS011;9974;52.146;14.668;2023-02-17T01:27:54;28.90;;;17.65;;
19651;SDS011;9974;52.146;14.668;2023-02-17T01:30:20;23.15;;;16.58;;
19651;SDS011;9974;52.146;14.668;2023-02-17T01:32:46;28.40;;;18.00;;
19651;SDS011;9974;52.146;14.668;2023-02-17T01:35:12;28.50;;;17.60;;
19651;SDS011;9974;52.146;14.668;2023-02-17T01:37:38;24.85;;;18.08;;
19651;SDS011;9974;52.146;14.668;2023-02-17T01:40:05;29.77;;;18.17;;
19651;SDS011;9974;52.146;14.668;2023-02-17T01:42:31;27.75;;;17.90;;
19651;SDS011;9974;52.146;14.668;2023-02-17T01:45:08;26.10;;;16.33;;
19651;SDS011;9974;52.146;14.668;2023-02-17T01:47:58;28.38;;;18.33;;
19651;SDS011;9974;52.146;14.668;2023-02-17T01:50:40;26.80;;;17.52;;
19651;SDS011;9974;52.146;14.668;2023-02-17T01:53:20;28.55;;;18.27;;
19651;SDS011;9974;52.146;14.668;2023-02-17T01:55:49;25.02;;;17.88;;
19651;SDS011;9974;52.146;14.668;2023-02-17T01:58:16;26.17;;;17.10;;
19651;SDS011;9974;52.146;14.668;2023-02-17T02:00:44;27.55;;;17.33;;
19651;SDS011;9974;52.146;14.668;2023-02-17T02:03:11;29.45;;;17.77;;
19651;SDS011;9974;52.146;14.668;2023-02-17T02:05:38;25.02;;;18.08;;
19651;SDS011;9974;52.146;14.668;2023-02-17T02:08:05;30.95;;;18.38;;
19651;SDS011;9974;52.146;14.668;2023-02-17T02:10:31;24.17;;;17.55;;
19651;SDS011;9974;52.146;14.668;2023-02-17T02:12:57;27.23;;;15.82;;
19651;SDS011;9974;52.146;14.668;2023-02-17T02:15:24;29.60;;;18.60;;
19651;SDS011;9974;52.146;14.668;2023-02-17T02:18:07;26.63;;;18.20;;
19651;SDS011;9974;52.146;14.668;2023-02-17T02:29:23;27.67;;;18.88;;
19651;SDS011;9974;52.146;14.668;2023-02-17T02:35:12;26.75;;;18.27;;
19651;SDS011;9974;52.146;14.668;2023-02-17T02:38:17;29.05;;;19.42;;
19651;SDS011;9974;52.146;14.668;2023-02-17T02:40:39;25.08;;;18.38;;
19651;SDS011;9974;52.146;14.668;2023-02-17T02:43:07;29.98;;;18.85;;
19651;SDS011;9974;52.146;14.668;2023-02-17T02:45:34;26.70;;;19.98;;
19651;SDS011;9974;52.146;14.668;2023-02-17T02:48:00;28.88;;;18.33;;
19651;SDS011;9974;52.146;14.668;2023-02-17T02:50:34;29.58;;;19.77;;
19651;SDS011;9974;52.146;14.668;2023-02-17T03:02:30;30.13;;;19.05;;
19651;SDS011;9974;52.146;14.668;2023-02-17T03:05:29;29.95;;;20.15;;
19651;SDS011;9974;52.146;14.668;2023-02-17T03:08:03;29.77;;;19.58;;
19651;SDS011;9974;52.146;14.668;2023-02-17T03:10:32;28.13;;;18.65;;
19651;SDS011;9974;52.146;14.668;2023-02-17T03:13:00;31.52;;;21.70;;
19651;SDS011;9974;52.146;14.668;2023-02-17T03:15:28;35.22;;;20.92;;
19651;SDS011;9974;52.146;14.668;2023-02-17T03:17:58;30.98;;;20.23;;
19651;SDS011;9974;52.146;14.668;2023-02-17T03:20:26;27.92;;;20.13;;
19651;SDS011;9974;52.146;14.668;2023-02-17T03:22:54;29.30;;;19.63;;
19651;SDS011;9974;52.146;14.668;2023-02-17T03:25:20;30.80;;;19.38;;
19651;SDS011;9974;52.146;14.668;2023-02-17T03:27:46;30.00;;;20.10;;
19651;SDS011;9974;52.146;14.668;2023-02-17T03:30:13;30.70;;;20.48;;
19651;SDS011;9974;52.146;14.668;2023-02-17T03:32:39;30.27;;;20.33;;
19651;SDS011;9974;52.146;14.668;2023-02-17T03:35:06;29.08;;;19.90;;
19651;SDS011;9974;52.146;14.668;2023-02-17T03:37:33;29.70;;;20.17;;
19651;SDS011;9974;52.146;14.668;2023-02-17T03:39:59;27.38;;;20.10;;
19651;SDS011;9974;52.146;14.668;2023-02-17T03:42:25;30.55;;;20.10;;
19651;SDS011;9974;52.146;14.668;2023-02-17T03:44:51;31.58;;;20.13;;
19651;SDS011;9974;52.146;14.668;2023-02-17T03:47:17;30.95;;;20.17;;
19651;SDS011;9974;52.146;14.668;2023-02-17T03:49:43;32.42;;;20.58;;
19651;SDS011;9974;52.146;14.668;2023-02-17T03:52:09;34.70;;;20.40;;
19651;SDS011;9974;52.146;14.668;2023-02-17T03:54:35;29.40;;;19.75;;
19651;SDS011;9974;52.146;14.668;2023-02-17T03:57:01;31.38;;;20.33;;
19651;SDS011;9974;52.146;14.668;2023-02-17T03:59:27;30.40;;;21.25;;
19651;SDS011;9974;52.146;14.668;2023-02-17T04:01:54;35.60;;;23.23;;
19651;SDS011;9974;52.146;14.668;2023-02-17T04:04:20;33.17;;;21.23;;
19651;SDS011;9974;52.146;14.668;2023-02-17T04:06:46;30.35;;;21.00;;
19651;SDS011;9974;52.146;14.668;2023-02-17T04:09:12;32.40;;;22.38;;
19651;SDS011;9974;52.146;14.668;2023-02-17T04:11:38;33.00;;;21.63;;
19651;SDS011;9974;52.146;14.668;2023-02-17T04:14:04;36.45;;;21.50;;
19651;SDS011;9974;52.146;14.668;2023-02-17T04:16:30;34.92;;;23.40;;
19651;SDS011;9974;52.146;14.668;2023-02-17T04:18:56;32.03;;;21.73;;
19651;SDS011;9974;52.146;14.668;2023-02-17T04:21:22;36.42;;;23.65;;
19651;SDS011;9974;52.146;14.668;2023-02-17T04:23:48;33.40;;;21.85;;
19651;SDS011;9974;52.146;14.668;2023-02-17T04:26:15;36.83;;;22.88;;
19651;SDS011;9974;52.146;14.668;2023-02-17T04:28:41;39.47;;;22.52;;
19651;SDS011;9974;52.146;14.668;2023-02-17T04:31:07;33.25;;;22.90;;
19651;SDS011;9974;52.146;14.668;2023-02-17T04:33:34;37.47;;;24.52;;
19651;SDS011;9974;52.146;14.668;2023-02-17T04:36:00;37.10;;;24.92;;
19651;SDS011;9974;52.146;14.668;2023-02-17T04:38:26;34.08;;;21.98;;
19651;SDS011;9974;52.146;14.668;2023-02-17T04:40:54;35.42;;;23.55;;
19651;SDS011;9974;52.146;14.668;2023-02-17T04:43:21;32.13;;;22.17;;
19651;SDS011;9974;52.146;14.668;2023-02-17T04:45:48;33.78;;;23.02;;
19651;SDS011;9974;52.146;14.668;2023-02-17T04:48:15;36.10;;;22.73;;
19651;SDS011;9974;52.146;14.668;2023-02-17T04:50:41;35.70;;;22.27;;
19651;SDS011;9974;52.146;14.668;2023-02-17T04:53:07;33.72;;;23.65;;
19651;SDS011;9974;52.146;14.668;2023-02-17T04:55:33;37.28;;;23.70;;
19651;SDS011;9974;52.146;14.668;2023-02-17T04:57:59;36.90;;;24.60;;
19651;SDS011;9974;52.146;14.668;2023-02-17T05:00:25;39.03;;;24.35;;
19651;SDS011;9974;52.146;14.668;2023-02-17T05:02:51;34.88;;;23.92;;
19651;SDS011;9974;52.146;14.668;2023-02-17T05:05:18;40.05;;;24.65;;
19651;SDS011;9974;52.146;14.668;2023-02-17T05:07:45;36.75;;;24.88;;
19651;SDS011;9974;52.146;14.668;2023-02-17T05:10:12;37.47;;;24.88;;
19651;SDS011;9974;52.146;14.668;2023-02-17T05:12:38;36.55;;;24.73;;
19651;SDS011;9974;52.146;14.668;2023-02-17T05:15:05;35.17;;;24.10;;
19651;SDS011;9974;52.146;14.668;2023-02-17T05:17:32;34.65;;;24.83;;
19651;SDS011;9974;52.146;14.668;2023-02-17T05:19:58;32.05;;;22.33;;
19651;SDS011;9974;52.146;14.668;2023-02-17T05:22:25;37.25;;;25.63;;
19651;SDS011;9974;52.146;14.668;2023-02-17T05:24:51;34.78;;;23.55;;
19651;SDS011;9974;52.146;14.668;2023-02-17T05:27:17;33.92;;;23.33;;
19651;SDS011;9974;52.146;14.668;2023-02-17T05:29:43;34.50;;;25.25;;
19651;SDS011;9974;52.146;14.668;2023-02-17T05:32:09;33.53;;;22.98;;
19651;SDS011;9974;52.146;14.668;2023-02-17T05:34:36;35.88;;;23.42;;
19651;SDS011;9974;52.146;14.668;2023-02-17T05:37:03;32.15;;;20.92;;
19651;SDS011;9974;52.146;14.668;2023-02-17T05:39:29;34.50;;;22.65;;
19651;SDS011;9974;52.146;14.668;2023-02-17T05:41:55;31.33;;;22.08;;
19651;SDS011;9974;52.146;14.668;2023-02-17T05:44:21;32.35;;;22.67;;
19651;SDS011;9974;52.146;14.668;2023-02-17T05:46:47;35.65;;;22.23;;
19651;SDS011;9974;52.146;14.668;2023-02-17T05:49:13;32.63;;;21.48;;
19651;SDS011;9974;52.146;14.668;2023-02-17T05:51:39;32.15;;;23.02;;
19651;SDS011;9974;52.146;14.668;2023-02-17T05:54:05;31.83;;;23.00;;
19651;SDS011;9974;52.146;14.668;2023-02-17T05:56:31;33.20;;;22.88;;
19651;SDS011;9974;52.146;14.668;2023-02-17T05:58:57;29.80;;;21.00;;
19651;SDS011;9974;52.146;14.668;2023-02-17T06:01:24;32.60;;;22.40;;
19651;SDS011;9974;52.146;14.668;2023-02-17T06:03:50;30.48;;;22.20;;
19651;SDS011;9974;52.146;14.668;2023-02-17T06:06:16;32.03;;;21.35;;
19651;SDS011;9974;52.146;14.668;2023-02-17T06:08:43;31.63;;;21.63;;
19651;SDS011;9974;52.146;14.668;2023-02-17T06:11:09;33.15;;;22.42;;
19651;SDS011;9974;52.146;14.668;2023-02-17T06:13:35;33.58;;;22.23;;
19651;SDS011;9974;52.146;14.668;2023-02-17T06:16:01;32.90;;;22.55;;
19651;SDS011;9974;52.146;14.668;2023-02-17T06:18:27;31.02;;;21.27;;
19651;SDS011;9974;52.146;14.668;2023-02-17T06:20:54;33.00;;;23.48;;
19651;SDS011;9974;52.146;14.668;2023-02-17T06:23:20;29.25;;;22.33;;
19651;SDS011;9974;52.146;14.668;2023-02-17T06:25:47;35.70;;;22.67;;
19651;SDS011;9974;52.146;14.668;2023-02-17T06:28:13;30.33;;;21.35;;
19651;SDS011;9974;52.146;14.668;2023-02-17T06:30:39;32.00;;;21.05;;
19651;SDS011;9974;52.146;14.668;2023-02-17T06:33:05;32.38;;;22.77;;
19651;SDS011;9974;52.146;14.668;2023-02-17T06:35:31;32.00;;;22.55;;
19651;SDS011;9974;52.146;14.668;2023-02-17T06:37:58;30.13;;;21.35;;
19651;SDS011;9974;52.146;14.668;2023-02-17T06:40:24;27.30;;;20.80;;
19651;SDS011;9974;52.146;14.668;2023-02-17T06:42:50;31.15;;;22.63;;
19651;SDS011;9974;52.146;14.668;2023-02-17T06:45:16;31.75;;;23.48;;
19651;SDS011;9974;52.146;14.668;2023-02-17T06:47:42;34.78;;;24.38;;
19651;SDS011;9974;52.146;14.668;2023-02-17T06:50:08;33.72;;;22.55;;
19651;SDS011;9974;52.146;14.668;2023-02-17T06:52:35;30.95;;;22.67;;
19651;SDS011;9974;52.146;14.668;2023-02-17T06:55:01;32.22;;;23.63;;
19651;SDS011;9974;52.146;14.668;2023-02-17T06:57:27;34.58;;;24.80;;
19651;SDS011;9974;52.146;14.668;2023-02-17T06:59:53;32.33;;;24.05;;
19651;SDS011;9974;52.146;14.668;2023-02-17T07:02:20;37.42;;;27.30;;
19651;SDS011;9974;52.146;14.668;2023-02-17T07:04:46;37.95;;;25.88;;
19651;SDS011;9974;52.146;14.668;2023-02-17T07:07:12;37.13;;;27.40;;
19651;SDS011;9974;52.146;14.668;2023-02-17T07:09:38;41.65;;;28.00;;
19651;SDS011;9974;52.146;14.668;2023-02-17T07:12:04;37.50;;;28.15;;
19651;SDS011;9974;52.146;14.668;2023-02-17T07:14:31;45.53;;;30.90;;
19651;SDS011;9974;52.146;14.668;2023-02-17T07:16:58;45.47;;;29.67;;
19651;SDS011;9974;52.146;14.668;2023-02-17T07:19:24;44.03;;;30.05;;
19651;SDS011;9974;52.146;14.668;2023-02-17T07:21:50;46.10;;;31.55;;
19651;SDS011;9974;52.146;14.668;2023-02-17T07:24:16;35.75;;;27.75;;
19651;SDS011;9974;52.146;14.668;2023-02-17T07:26:43;45.67;;;32.13;;
19651;SDS011;9974;52.146;14.668;2023-02-17T07:29:09;43.35;;;30.00;;
19651;SDS011;9974;52.146;14.668;2023-02-17T07:31:35;45.88;;;30.23;;
19651;SDS011;9974;52.146;14.668;2023-02-17T07:34:01;41.55;;;28.33;;
19651;SDS011;9974;52.146;14.668;2023-02-17T07:36:27;44.35;;;29.88;;
19651;SDS011;9974;52.146;14.668;2023-02-17T07:38:53;44.35;;;30.65;;
19651;SDS011;9974;52.146;14.668;2023-02-17T07:41:20;36.80;;;27.77;;
19651;SDS011;9974;52.146;14.668;2023-02-17T07:43:48;42.58;;;29.90;;
19651;SDS011;9974;52.146;14.668;2023-02-17T07:46:17;38.85;;;28.13;;
19651;SDS011;9974;52.146;14.668;2023-02-17T07:48:43;35.08;;;27.35;;
19651;SDS011;9974;52.146;14.668;2023-02-17T07:51:11;40.80;;;28.98;;
19651;SDS011;9974;52.146;14.668;2023-02-17T07:53:47;40.22;;;27.63;;
19651;SDS011;9974;52.146;14.668;2023-02-17T07:56:14;40.00;;;27.50;;
19651;SDS011;9974;52.146;14.668;2023-02-17T07:58:42;39.13;;;27.25;;
19651;SDS011;9974;52.146;14.668;2023-02-17T08:01:16;44.95;;;28.95;;
19651;SDS011;9974;52.146;14.668;2023-02-17T08:03:44;35.92;;;25.45;;
19651;SDS011;9974;52.146;14.668;2023-02-17T08:06:11;33.22;;;25.95;;
19651;SDS011;9974;52.146;14.668;2023-02-17T08:08:41;35.88;;;25.85;;
19651;SDS011;9974;52.146;14.668;2023-02-17T08:11:26;37.20;;;26.80;;
19651;SDS011;9974;52.146;14.668;2023-02-17T08:14:11;34.75;;;25.23;;
19651;SDS011;9974;52.146;14.668;2023-02-17T08:16:37;41.13;;;27.55;;
19651;SDS011;9974;52.146;14.668;2023-02-17T08:19:04;35.92;;;26.85;;
19651;SDS011;9974;52.146;14.668;2023-02-17T08:21:30;41.13;;;27.75;;
19651;SDS011;9974;52.146;14.668;2023-02-17T08:23:56;36.83;;;26.33;;
19651;SDS011;9974;52.146;14.668;2023-02-17T08:26:22;40.72;;;27.10;;
19651;SDS011;9974;52.146;14.668;2023-02-17T08:28:49;34.75;;;24.48;;
19651;SDS011;9974;52.146;14.668;2023-02-17T08:31:16;40.78;;;25.58;;
19651;SDS011;9974;52.146;14.668;2023-02-17T08:33:43;39.70;;;26.50;;
19651;SDS011;9974;52.146;14.668;2023-02-17T08:36:09;35.47;;;25.05;;
19651;SDS011;9974;52.146;14.668;2023-02-17T08:38:35;36.03;;;26.20;;
19651;SDS011;9974;52.146;14.668;2023-02-17T08:41:01;39.63;;;25.60;;
19651;SDS011;9974;52.146;14.668;2023-02-17T08:43:40;35.30;;;23.67;;
19651;SDS011;9974;52.146;14.668;2023-02-17T08:46:07;33.30;;;24.55;;
19651;SDS011;9974;52.146;14.668;2023-02-17T08:48:34;33.80;;;24.50;;
19651;SDS011;9974;52.146;14.668;2023-02-17T08:51:00;33.33;;;24.38;;
19651;SDS011;9974;52.146;14.668;2023-02-17T08:53:27;34.00;;;23.75;;
19651;SDS011;9974;52.146;14.668;2023-02-17T08:55:53;30.10;;;22.75;;
19651;SDS011;9974;52.146;14.668;2023-02-17T08:58:19;31.80;;;21.55;;
19651;SDS011;9974;52.146;14.668;2023-02-17T09:00:45;29.73;;;21.50;;
19651;SDS011;9974;52.146;14.668;2023-02-17T09:03:11;31.20;;;20.45;;
19651;SDS011;9974;52.146;14.668;2023-02-17T09:05:38;26.95;;;20.30;;
19651;SDS011;9974;52.146;14.668;2023-02-17T09:08:04;25.40;;;19.00;;
19651;SDS011;9974;52.146;14.668;2023-02-17T09:10:30;27.65;;;19.60;;
19651;SDS011;9974;52.146;14.668;2023-02-17T09:12:56;26.85;;;18.15;;
19651;SDS011;9974;52.146;14.668;2023-02-17T09:15:22;26.48;;;18.00;;
19651;SDS011;9974;52.146;14.668;2023-02-17T09:17:49;24.90;;;17.17;;
19651;SDS011;9974;52.146;14.668;2023-02-17T09:20:15;25.35;;;17.00;;
19651;SDS011;9974;52.146;14.668;2023-02-17T09:22:43;23.50;;;16.90;;
19651;SDS011;9974;52.146;14.668;2023-02-17T09:25:09;26.33;;;17.02;;
19651;SDS011;9974;52.146;14.668;2023-02-17T09:27:35;22.38;;;17.00;;
19651;SDS011;9974;52.146;14.668;2023-02-17T09:30:01;25.55;;;16.67;;
19651;SDS011;9974;52.146;14.668;2023-02-17T09:32:27;22.33;;;15.35;;
19651;SDS011;9974;52.146;14.668;2023-02-17T09:34:53;23.35;;;15.90;;
19651;SDS011;9974;52.146;14.668;2023-02-17T09:37:19;20.63;;;15.38;;
19651;SDS011;9974;52.146;14.668;2023-02-17T09:39:46;24.30;;;16.33;;
19651;SDS011;9974;52.146;14.668;2023-02-17T09:42:19;20.15;;;14.75;;
19651;SDS011;9974;52.146;14.668;2023-02-17T09:44:48;20.63;;;14.55;;
19651;SDS011;9974;52.146;14.668;2023-02-17T09:47:37;19.27;;;13.45;;
19651;SDS011;9974;52.146;14.668;2023-02-17T09:50:10;21.58;;;13.43;;
19651;SDS011;9974;52.146;14.668;2023-02-17T09:57:45;27.20;;;13.65;;
19651;SDS011;9974;52.146;14.668;2023-02-17T10:00:27;16.95;;;12.80;;
19651;SDS011;9974;52.146;14.668;2023-02-17T10:02:58;18.77;;;13.18;;
19651;SDS011;9974;52.146;14.668;2023-02-17T10:05:35;18.60;;;13.40;;
19651;SDS011;9974;52.146;14.668;2023-02-17T10:08:06;19.40;;;14.77;;
19651;SDS011;9974;52.146;14.668;2023-02-17T10:10:49;20.10;;;14.52;;
19651;SDS011;9974;52.146;14.668;2023-02-17T10:13:19;19.10;;;13.15;;
19651;SDS011;9974;52.146;14.668;2023-02-17T10:15:52;22.02;;;15.45;;
19651;SDS011;9974;52.146;14.668;2023-02-17T10:18:29;18.77;;;13.65;;
19651;SDS011;9974;52.146;14.668;2023-02-17T10:21:18;22.63;;;14.75;;
19651;SDS011;9974;52.146;14.668;2023-02-17T10:23:49;22.60;;;15.55;;
19651;SDS011;9974;52.146;14.668;2023-02-17T10:29:19;22.55;;;14.50;;
19651;SDS011;9974;52.146;14.668;2023-02-17T10:32:14;17.30;;;14.02;;
19651;SDS011;9974;52.146;14.668;2023-02-17T10:34:59;19.02;;;12.82;;
19651;SDS011;9974;52.146;14.668;2023-02-17T10:37:34;21.92;;;14.60;;
19651;SDS011;9974;52.146;14.668;2023-02-17T10:40:20;24.23;;;15.02;;
19651;SDS011;9974;52.146;14.668;2023-02-17T10:42:54;21.55;;;16.88;;
19651;SDS011;9974;52.146;14.668;2023-02-17T10:45:24;23.98;;;16.60;;
19651;SDS011;9974;52.146;14.668;2023-02-17T10:48:06;20.30;;;16.60;;
19651;SDS011;9974;52.146;14.668;2023-02-17T10:50:38;20.63;;;16.27;;
19651;SDS011;9974;52.146;14.668;2023-02-17T10:53:10;23.42;;;16.20;;
19651;SDS011;9974;52.146;14.668;2023-02-17T11:01:31;20.63;;;15.38;;
19651;SDS011;9974;52.146;14.668;2023-02-17T11:04:05;19.85;;;15.75;;
19651;SDS011;9974;52.146;14.668;2023-02-17T11:06:36;19.70;;;14.05;;
19651;SDS011;9974;52.146;14.668;2023-02-17T11:09:17;21.52;;;16.10;;
19651;SDS011;9974;52.146;14.668;2023-02-17T11:14:31;16.52;;;12.77;;
19651;SDS011;9974;52.146;14.668;2023-02-17T11:16:58;19.00;;;15.30;;
19651;SDS011;9974;52.146;14.668;2023-02-17T11:19:30;20.73;;;14.73;;
19651;SDS011;9974;52.146;14.668;2023-02-17T11:21:58;20.17;;;15.50;;
19651;SDS011;9974;52.146;14.668;2023-02-17T11:24:26;19.83;;;14.05;;
19651;SDS011;9974;52.146;14.668;2023-02-17T11:26:57;19.83;;;15.25;;
19651;SDS011;9974;52.146;14.668;2023-02-17T11:29:25;20.35;;;14.02;;
19651;SDS011;9974;52.146;14.668;2023-02-17T11:31:52;19.20;;;13.45;;
19651;SDS011;9974;52.146;14.668;2023-02-17T11:34:21;18.65;;;13.40;;
19651;SDS011;9974;52.146;14.668;2023-02-17T11:36:59;16.52;;;13.23;;
19651;SDS011;9974;52.146;14.668;2023-02-17T11:39:36;16.85;;;13.23;;
19651;SDS011;9974;52.146;14.668;2023-02-17T11:42:22;20.17;;;13.98;;
19651;SDS011;9974;52.146;14.668;2023-02-17T11:44:50;17.83;;;12.60;;
19651;SDS011;9974;52.146;14.668;2023-02-17T11:53:22;17.92;;;11.65;;
19651;SDS011;9974;52.146;14.668;2023-02-17T11:56:13;17.73;;;13.57;;
19651;SDS011;9974;52.146;14.668;2023-02-17T11:58:46;17.30;;;13.25;;
19651;SDS011;9974;52.146;14.668;2023-02-17T12:04:20;18.15;;;12.85;;
19651;SDS011;9974;52.146;14.668;2023-02-17T12:06:56;18.27;;;12.70;;
19651;SDS011;9974;52.146;14.668;2023-02-17T12:09:44;17.75;;;13.13;;
19651;SDS011;9974;52.146;14.668;2023-02-17T12:12:20;20.13;;;13.52;;
19651;SDS011;9974;52.146;14.668;2023-02-17T12:14:59;16.02;;;11.93;;
19651;SDS011;9974;52.146;14.668;2023-02-17T12:17:34;18.25;;;12.02;;
19651;SDS011;9974;52.146;14.668;2023-02-17T12:23:10;14.43;;;11.80;;
19651;SDS011;9974;52.146;14.668;2023-02-17T12:25:55;15.35;;;11.93;;
19651;SDS011;9974;52.146;14.668;2023-02-17T12:34:35;16.02;;;11.25;;
19651;SDS011;9974;52.146;14.668;2023-02-17T12:37:04;16.30;;;10.38;;
19651;SDS011;9974;52.146;14.668;2023-02-17T12:39:48;13.82;;;10.23;;
19651;SDS011;9974;52.146;14.668;2023-02-17T12:44:54;14.82;;;9.23;;
19651;SDS011;9974;52.146;14.668;2023-02-17T12:47:43;10.85;;;8.48;;
19651;SDS011;9974;52.146;14.668;2023-02-17T12:50:25;10.57;;;7.93;;
19651;SDS011;9974;52.146;14.668;2023-02-17T12:53:00;10.82;;;7.43;;
19651;SDS011;9974;52.146;14.668;2023-02-17T12:55:43;10.55;;;7.40;;
19651;SDS011;9974;52.146;14.668;2023-02-17T12:58:33;11.13;;;7.97;;
19651;SDS011;9974;52.146;14.668;2023-02-17T13:03:30;10.25;;;7.32;;
19651;SDS011;9974;52.146;14.668;2023-02-17T13:08:42;10.45;;;7.47;;
19651;SDS011;9974;52.146;14.668;2023-02-17T13:11:30;9.38;;;7.05;;
19651;SDS011;9974;52.146;14.668;2023-02-17T13:16:45;9.55;;;6.43;;
19651;SDS011;9974;52.146;14.668;2023-02-17T13:19:12;8.30;;;6.38;;
19651;SDS011;9974;52.146;14.668;2023-02-17T13:21:50;9.77;;;5.97;;
19651;SDS011;9974;52.146;14.668;2023-02-17T13:24:31;8.15;;;6.05;;
19651;SDS011;9974;52.146;14.668;2023-02-17T13:27:11;8.57;;;5.65;;
19651;SDS011;9974;52.146;14.668;2023-02-17T13:29:45;11.00;;;6.90;;
19651;SDS011;9974;52.146;14.668;2023-02-17T13:32:11;8.63;;;5.53;;
19651;SDS011;9974;52.146;14.668;2023-02-17T13:34:42;8.27;;;6.13;;
19651;SDS011;9974;52.146;14.668;2023-02-17T13:37:24;10.73;;;5.85;;
19651;SDS011;9974;52.146;14.668;2023-02-17T13:39:57;7.28;;;4.93;;
19651;SDS011;9974;52.146;14.668;2023-02-17T13:42:42;6.75;;;5.10;;
19651;SDS011;9974;52.146;14.668;2023-02-17T13:47:59;6.35;;;4.25;;
19651;SDS011;9974;52.146;14.668;2023-02-17T13:50:37;7.63;;;4.60;;
19651;SDS011;9974;52.146;14.668;2023-02-17T13:53:24;7.95;;;5.05;;
19651;SDS011;9974;52.146;14.668;2023-02-17T13:55:54;7.88;;;4.63;;
19651;SDS011;9974;52.146;14.668;2023-02-17T13:58:22;7.30;;;4.20;;
19651;SDS011;9974;52.146;14.668;2023-02-17T14:00:51;6.80;;;4.13;;
19651;SDS011;9974;52.146;14.668;2023-02-17T14:03:20;5.35;;;3.33;;
19651;SDS011;9974;52.146;14.668;2023-02-17T14:05:48;5.88;;;3.83;;
19651;SDS011;9974;52.146;14.668;2023-02-17T14:08:20;6.90;;;4.30;;
19651;SDS011;9974;52.146;14.668;2023-02-17T14:10:53;7.53;;;3.80;;
19651;SDS011;9974;52.146;14.668;2023-02-17T14:13:19;10.32;;;6.25;;
19651;SDS011;9974;52.146;14.668;2023-02-17T14:15:48;8.00;;;4.72;;
19651;SDS011;9974;52.146;14.668;2023-02-17T14:18:28;8.73;;;5.10;;
19651;SDS011;9974;52.146;14.668;2023-02-17T14:21:00;6.57;;;4.50;;
19651;SDS011;9974;52.146;14.668;2023-02-17T14:23:41;8.50;;;4.70;;
19651;SDS011;9974;52.146;14.668;2023-02-17T14:26:11;7.22;;;4.22;;
19651;SDS011;9974;52.146;14.668;2023-02-17T14:28:39;6.65;;;4.45;;
19651;SDS011;9974;52.146;14.668;2023-02-17T14:31:09;6.68;;;4.43;;
19651;SDS011;9974;52.146;14.668;2023-02-17T14:33:36;7.80;;;4.95;;
19651;SDS011;9974;52.146;14.668;2023-02-17T14:36:03;7.50;;;4.47;;
19651;SDS011;9974;52.146;14.668;2023-02-17T14:38:33;5.85;;;3.90;;
19651;SDS011;9974;52.146;14.668;2023-02-17T14:41:07;6.25;;;4.35;;
19651;SDS011;9974;52.146;14.668;2023-02-17T14:43:34;6.82;;;4.60;;
19651;SDS011;9974;52.146;14.668;2023-02-17T14:46:00;9.88;;;4.07;;
19651;SDS011;9974;52.146;14.668;2023-02-17T14:48:26;5.68;;;3.42;;
19651;SDS011;9974;52.146;14.668;2023-02-17T14:50:52;5.70;;;3.90;;
19651;SDS011;9974;52.146;14.668;2023-02-17T14:56:13;7.10;;;3.70;;
19651;SDS011;9974;52.146;14.668;2023-02-17T14:58:50;4.30;;;3.50;;
19651;SDS011;9974;52.146;14.668;2023-02-17T15:01:17;4.93;;;3.35;;
19651;SDS011;9974;52.146;14.668;2023-02-17T15:03:44;6.20;;;3.63;;
19651;SDS011;9974;52.146;14.668;2023-02-17T15:06:12;5.80;;;3.20;;
19651;SDS011;9974;52.146;14.668;2023-02-17T15:08:43;6.28;;;4.07;;
19651;SDS011;9974;52.146;14.668;2023-02-17T15:11:16;4.63;;;3.40;;
19651;SDS011;9974;52.146;14.668;2023-02-17T15:13:44;5.30;;;3.47;;
19651;SDS011;9974;52.146;14.668;2023-02-17T15:16:10;5.80;;;3.53;;
19651;SDS011;9974;52.146;14.668;2023-02-17T15:18:37;4.75;;;3.33;;
19651;SDS011;9974;52.146;14.668;2023-02-17T15:21:06;4.68;;;3.38;;
19651;SDS011;9974;52.146;14.668;2023-02-17T15:23:46;6.53;;;3.60;;
19651;SDS011;9974;52.146;14.668;2023-02-17T15:26:12;4.15;;;2.90;;
19651;SDS011;9974;52.146;14.668;2023-02-17T15:28:38;5.55;;;3.42;;
19651;SDS011;9974;52.146;14.668;2023-02-17T15:31:04;5.45;;;3.70;;
19651;SDS011;9974;52.146;14.668;2023-02-17T15:33:30;5.70;;;3.28;;
19651;SDS011;9974;52.146;14.668;2023-02-17T15:35:56;5.20;;;2.95;;
19651;SDS011;9974;52.146;14.668;2023-02-17T15:38:23;3.97;;;2.50;;
19651;SDS011;9974;52.146;14.668;2023-02-17T15:40:51;4.25;;;2.60;;
19651;SDS011;9974;52.146;14.668;2023-02-17T15:43:20;4.95;;;3.35;;
19651;SDS011;9974;52.146;14.668;2023-02-17T15:45:48;4.60;;;3.08;;
19651;SDS011;9974;52.146;14.668;2023-02-17T15:48:24;7.95;;;2.83;;
19651;SDS011;9974;52.146;14.668;2023-02-17T15:50:51;6.82;;;3.25;;
19651;SDS011;9974;52.146;14.668;2023-02-17T15:53:18;3.70;;;2.35;;